CHICAGO O'HARE INTL

KORD (ORD)
Chicago, Illinois
Towered

Vatsim Metar:
KORD 280451Z 33008KT 10SM BKN027 M09/M14 A3050 RMK AO2 SLP341 T10891144 $

No ATC Online

Traffic

Inbound:
Ident
Type
Name
ETA
Phase
CLX1504
H/B744/L
Aulia Harun KGFK
05:53 Z
Cruse
CAL059
B738
KAO CHENG JUI RCTP
08:38 Z
Cruse
CAL621
B738
Kou Cheng Yen RCTP
08:45 Z
Cruse
AIB051
A321
Brandon Lin RCTP
08:49 Z
Cruse
AIB288
A321/X
Chunghsien Kao RCTP
09:01 Z
Cruse
DLH1155
H/A339/L
Edilson Matias Pereira Nunes EHAM
15:00 Z
Climb

Outbound:
Ident
Type
Name
Destination
Phase

IAPs